createdAt,value
2023-01-11T00:00:18.969Z,51.211990
2023-01-11T00:01:18.980Z,51.212032
2023-01-11T00:02:18.973Z,51.212013
2023-01-11T00:03:18.976Z,51.211830
2023-01-11T00:04:19.031Z,51.211948
2023-01-11T00:05:18.932Z,51.212029
2023-01-11T00:06:18.944Z,51.211967
2023-01-11T00:07:18.967Z,51.211937
2023-01-11T00:08:18.925Z,51.211979
2023-01-11T00:09:18.924Z,51.212025
2023-01-11T00:10:18.922Z,51.212051
2023-01-11T00:11:18.892Z,51.212025
2023-01-11T00:12:18.910Z,51.212013
2023-01-11T00:13:18.952Z,51.212002
2023-01-11T00:14:18.881Z,51.212055
2023-01-11T00:15:18.897Z,51.212143
2023-01-11T00:16:18.926Z,51.212196
2023-01-11T00:17:18.866Z,51.212006
2023-01-11T00:18:18.873Z,51.212032
2023-01-11T00:19:18.869Z,51.211987
2023-01-11T00:20:18.877Z,51.212177
2023-01-11T00:21:18.850Z,51.212189
2023-01-11T00:22:18.846Z,51.212124
2023-01-11T00:23:18.834Z,51.212032
2023-01-11T00:24:18.817Z,51.211758
2023-01-11T00:25:18.893Z,51.211933
2023-01-11T00:26:18.821Z,51.211956
2023-01-11T00:27:18.810Z,51.212257
2023-01-11T00:28:18.825Z,51.212170
2023-01-11T00:29:18.802Z,51.212090
2023-01-11T00:30:18.792Z,51.212139
2023-01-11T00:31:18.851Z,51.212074
2023-01-11T00:32:18.772Z,51.212006
2023-01-11T00:33:18.772Z,51.212067
2023-01-11T00:34:18.800Z,51.212078
2023-01-11T00:35:18.772Z,51.212093
2023-01-11T00:36:18.765Z,51.212090
2023-01-11T00:37:18.834Z,51.212193
2023-01-11T00:38:18.728Z,51.212040
2023-01-11T00:39:18.734Z,51.212154
2023-01-11T00:40:18.736Z,51.212074
2023-01-11T00:41:18.803Z,51.211964
2023-01-11T00:42:18.716Z,51.212032
2023-01-11T00:43:18.700Z,51.211964
2023-01-11T00:44:18.704Z,51.212070
2023-01-11T00:45:18.780Z,51.212105
2023-01-11T00:46:18.753Z,51.212101
2023-01-11T00:47:18.687Z,51.212086
2023-01-11T00:48:18.697Z,51.212093
2023-01-11T00:49:18.672Z,51.212029
2023-01-11T00:50:18.657Z,51.212009
2023-01-11T00:51:19.711Z,51.211990
2023-01-11T00:52:18.650Z,51.212029
2023-01-11T00:53:18.648Z,51.212143
2023-01-11T00:54:18.699Z,51.212040
2023-01-11T00:55:18.632Z,51.211895
2023-01-11T00:56:18.638Z,51.212193
2023-01-11T00:57:18.653Z,51.212250
2023-01-11T00:58:18.612Z,51.212170
2023-01-11T00:59:18.610Z,51.211929
2023-01-11T01:00:18.603Z,51.212097
2023-01-11T01:01:18.656Z,51.212086
2023-01-11T01:02:18.633Z,51.212109
2023-01-11T01:03:18.589Z,51.212021
2023-01-11T01:04:18.597Z,51.211918
2023-01-11T01:05:18.593Z,51.211849
2023-01-11T01:06:18.578Z,51.211929
2023-01-11T01:07:18.581Z,51.212013
2023-01-11T01:08:18.580Z,51.212082
2023-01-11T01:09:18.553Z,51.212097
2023-01-11T01:10:18.608Z,51.212116
2023-01-11T01:11:18.563Z,51.212132
2023-01-11T01:12:18.531Z,51.212132
2023-01-11T01:13:18.569Z,51.212082
2023-01-11T01:14:18.529Z,51.212070
2023-01-11T01:15:18.513Z,51.212093
2023-01-11T01:16:18.547Z,51.212036
2023-01-11T01:17:18.507Z,51.212029
2023-01-11T01:18:18.517Z,51.212044
2023-01-11T01:19:18.489Z,51.212128
2023-01-11T01:20:18.509Z,51.212021
2023-01-11T01:21:18.491Z,51.211983
2023-01-11T01:22:18.469Z,51.212006
2023-01-11T01:23:18.483Z,51.212074
2023-01-11T01:24:18.499Z,51.212059
2023-01-11T01:25:18.449Z,51.212078
2023-01-11T01:26:18.450Z,51.212116
2023-01-11T01:27:18.480Z,51.211998
2023-01-11T01:28:18.449Z,51.212067
2023-01-11T01:29:18.508Z,51.212181
2023-01-11T01:30:18.425Z,51.212223
2023-01-11T01:31:18.473Z,51.212124
2023-01-11T01:32:18.440Z,51.212116
2023-01-11T01:33:18.432Z,51.212162
2023-01-11T01:34:18.456Z,51.212212
2023-01-11T01:35:18.404Z,51.212189
2023-01-11T01:36:18.391Z,51.212234
2023-01-11T01:37:18.377Z,51.212189
2023-01-11T01:38:18.404Z,51.212105
2023-01-11T01:39:18.369Z,51.212082
2023-01-11T01:40:18.382Z,51.212093
2023-01-11T01:41:18.379Z,51.212063
2023-01-11T01:42:18.359Z,51.212074
2023-01-11T01:43:18.350Z,51.212074
2023-01-11T01:44:18.356Z,51.212139
2023-01-11T01:45:18.346Z,51.212212
2023-01-11T01:46:18.369Z,51.212189
2023-01-11T01:47:18.351Z,51.212170
2023-01-11T01:48:18.311Z,51.212292
2023-01-11T01:49:18.308Z,51.212193
2023-01-11T01:50:18.353Z,51.211967
2023-01-11T01:51:18.304Z,51.211941
2023-01-11T01:52:18.303Z,51.211906
2023-01-11T01:53:18.324Z,51.212074
2023-01-11T01:54:18.299Z,51.212143
2023-01-11T01:55:18.317Z,51.212189
2023-01-11T01:56:18.304Z,51.212101
2023-01-11T01:57:18.270Z,51.212055
2023-01-11T01:58:18.262Z,51.211983
2023-01-11T01:59:18.337Z,51.212036
2023-01-11T02:00:18.268Z,51.212009
2023-01-11T02:01:18.270Z,51.212044
2023-01-11T02:02:18.274Z,51.211800
2023-01-11T02:03:18.227Z,51.211796
2023-01-11T02:04:18.227Z,51.211910
2023-01-11T02:05:18.230Z,51.211910
2023-01-11T02:06:18.252Z,51.211906
2023-01-11T02:07:18.209Z,51.211830
2023-01-11T02:08:18.202Z,51.211975
2023-01-11T02:09:18.200Z,51.211895
2023-01-11T02:10:18.189Z,51.211929
2023-01-11T02:11:18.208Z,51.212029
2023-01-11T02:12:18.189Z,51.211945
2023-01-11T02:13:18.165Z,51.211918
2023-01-11T02:14:18.186Z,51.211933
2023-01-11T02:15:18.149Z,51.211853
2023-01-11T02:16:18.200Z,51.211781
2023-01-11T02:17:18.185Z,51.211693
2023-01-11T02:18:18.165Z,51.211918
2023-01-11T02:19:18.134Z,51.211998
2023-01-11T02:20:18.150Z,51.212074
2023-01-11T02:21:18.118Z,51.212074
2023-01-11T02:22:18.118Z,51.212036
2023-01-11T02:23:18.151Z,51.212055
2023-01-11T02:24:18.105Z,51.211979
2023-01-11T02:25:18.082Z,51.211861
2023-01-11T02:26:19.104Z,51.211884
2023-01-11T02:27:18.085Z,51.212055
2023-01-11T02:28:18.090Z,51.212139
2023-01-11T02:29:18.131Z,51.212051
2023-01-11T02:30:18.074Z,51.212025
2023-01-11T02:31:19.615Z,51.212002
2023-01-11T02:32:18.081Z,51.212002
2023-01-11T02:33:18.082Z,51.211929
2023-01-11T02:34:19.068Z,51.211979
2023-01-11T02:35:18.034Z,51.212097
2023-01-11T02:36:18.025Z,51.212208
2023-01-11T02:37:18.031Z,51.212173
2023-01-11T02:38:18.024Z,51.212276
2023-01-11T02:39:18.029Z,51.212200
2023-01-11T02:40:18.034Z,51.212097
2023-01-11T02:41:17.999Z,51.212135
2023-01-11T02:42:18.009Z,51.212078
2023-01-11T02:43:18.005Z,51.212154
2023-01-11T02:44:18.019Z,51.212254
2023-01-11T02:45:17.992Z,51.212173
2023-01-11T02:46:18.008Z,51.212055
2023-01-11T02:47:17.958Z,51.212132
2023-01-11T02:48:17.985Z,51.212044
2023-01-11T02:49:17.951Z,51.212193
2023-01-11T02:50:17.997Z,51.212135
2023-01-11T02:51:17.959Z,51.212147
2023-01-11T02:52:17.939Z,51.212128
2023-01-11T02:53:17.947Z,51.212086
2023-01-11T02:54:17.934Z,51.212055
2023-01-11T02:55:17.932Z,51.212109
2023-01-11T02:56:17.925Z,51.212048
2023-01-11T02:57:17.918Z,51.212242
2023-01-11T02:58:17.902Z,51.212269
2023-01-11T02:59:17.899Z,51.212273
2023-01-11T03:00:17.937Z,51.212242
2023-01-11T03:01:17.934Z,51.212086
2023-01-11T03:02:17.881Z,51.212193
2023-01-11T03:03:17.879Z,51.212181
2023-01-11T03:04:17.864Z,51.212162
2023-01-11T03:05:17.884Z,51.212112
2023-01-11T03:06:17.891Z,51.212116
2023-01-11T03:07:17.848Z,51.212166
2023-01-11T03:08:17.834Z,51.212212
2023-01-11T03:09:17.898Z,51.212212
2023-01-11T03:10:17.821Z,51.212208
2023-01-11T03:11:17.839Z,51.212269
2023-01-11T03:12:17.821Z,51.212162
2023-01-11T03:13:17.814Z,51.212044
2023-01-11T03:14:17.806Z,51.212048
2023-01-11T03:15:17.821Z,51.212101
2023-01-11T03:16:18.874Z,51.211891
2023-01-11T03:17:17.794Z,51.212086
2023-01-11T03:18:17.807Z,51.212177
2023-01-11T03:19:17.795Z,51.212040
2023-01-11T03:20:17.766Z,51.212112
2023-01-11T03:21:17.844Z,51.212158
2023-01-11T03:22:17.788Z,51.212173
2023-01-11T03:23:17.763Z,51.212181
2023-01-11T03:24:17.757Z,51.212204
2023-01-11T03:25:17.802Z,51.212227
2023-01-11T03:26:17.747Z,51.212185
2023-01-11T03:27:17.749Z,51.212132
2023-01-11T03:28:17.758Z,51.212151
2023-01-11T03:29:17.718Z,51.212055
2023-01-11T03:30:17.725Z,51.212082
2023-01-11T03:31:17.769Z,51.212101
2023-01-11T03:32:17.730Z,51.212063
2023-01-11T03:33:17.706Z,51.212013
2023-01-11T03:34:17.710Z,51.212090
2023-01-11T03:35:17.688Z,51.212223
2023-01-11T03:36:17.702Z,51.212208
2023-01-11T03:37:17.727Z,51.212132
2023-01-11T03:38:17.667Z,51.212082
2023-01-11T03:39:17.673Z,51.212166
2023-01-11T03:40:17.671Z,51.212055
2023-01-11T03:41:17.652Z,51.211983
2023-01-11T03:42:17.646Z,51.212021
2023-01-11T03:43:18.143Z,51.212017
2023-01-11T03:44:18.631Z,51.212067
2023-01-11T03:45:17.643Z,51.212044
2023-01-11T03:46:17.675Z,51.212093
2023-01-11T03:47:17.627Z,51.212070
2023-01-11T03:48:17.628Z,51.212055
2023-01-11T03:49:17.616Z,51.212051
2023-01-11T03:50:17.601Z,51.212059
2023-01-11T03:51:17.616Z,51.212173
2023-01-11T03:52:17.619Z,51.212166
2023-01-11T03:53:17.604Z,51.212173
2023-01-11T03:54:17.597Z,51.212097
2023-01-11T03:55:17.593Z,51.212067
2023-01-11T03:56:17.562Z,51.212105
2023-01-11T03:57:17.566Z,51.212109
2023-01-11T03:58:17.577Z,51.212120
2023-01-11T03:59:17.555Z,51.212227
2023-01-11T04:00:17.552Z,51.212185
2023-01-11T04:01:17.602Z,51.212238
2023-01-11T04:02:17.536Z,51.212200
2023-01-11T04:03:17.530Z,51.212219
2023-01-11T04:04:17.605Z,51.212227
2023-01-11T04:05:17.541Z,51.212238
2023-01-11T04:06:17.507Z,51.212257
2023-01-11T04:07:17.525Z,51.212204
2023-01-11T04:08:17.502Z,51.212269
2023-01-11T04:09:17.506Z,51.212177
2023-01-11T04:10:17.523Z,51.212215
2023-01-11T04:11:17.483Z,51.212246
2023-01-11T04:12:17.477Z,51.212166
2023-01-11T04:13:17.471Z,51.212196
2023-01-11T04:14:17.515Z,51.212158
2023-01-11T04:15:17.474Z,51.212246
2023-01-11T04:16:17.472Z,51.212170
2023-01-11T04:17:17.443Z,51.212261
2023-01-11T04:18:17.445Z,51.212265
2023-01-11T04:19:17.441Z,51.212257
2023-01-11T04:20:17.461Z,51.212040
2023-01-11T04:21:17.439Z,51.211903
2023-01-11T04:22:17.429Z,51.211895
2023-01-11T04:23:17.433Z,51.211922
2023-01-11T04:24:17.406Z,51.211922
2023-01-11T04:25:17.415Z,51.212067
2023-01-11T04:26:17.493Z,51.211781
2023-01-11T04:27:17.394Z,51.211727
2023-01-11T04:28:17.382Z,51.211796
2023-01-11T04:29:17.399Z,51.211918
2023-01-11T04:30:17.393Z,51.211975
2023-01-11T04:31:17.440Z,51.211803
2023-01-11T04:32:17.457Z,51.211929
2023-01-11T04:33:17.359Z,51.211880
2023-01-11T04:34:17.349Z,51.211857
2023-01-11T04:35:17.367Z,51.211876
2023-01-11T04:36:17.341Z,51.212120
2023-01-11T04:37:17.347Z,51.212269
2023-01-11T04:38:17.336Z,51.212242
2023-01-11T04:39:17.341Z,51.212223
2023-01-11T04:40:17.364Z,51.212048
2023-01-11T04:41:17.322Z,51.212173
2023-01-11T04:42:17.306Z,51.212101
2023-01-11T04:43:17.294Z,51.212120
2023-01-11T04:44:17.337Z,51.212120
2023-01-11T04:45:17.295Z,51.212086
2023-01-11T04:46:17.296Z,51.212074
2023-01-11T04:47:17.367Z,51.212051
2023-01-11T04:48:17.269Z,51.212048
2023-01-11T04:49:17.261Z,51.212059
2023-01-11T04:50:17.312Z,51.212154
2023-01-11T04:51:17.243Z,51.212120
2023-01-11T04:52:17.285Z,51.212090
2023-01-11T04:53:17.315Z,51.212139
2023-01-11T04:54:17.228Z,51.212116
2023-01-11T04:55:17.225Z,51.212204
2023-01-11T04:56:17.237Z,51.212173
2023-01-11T04:57:17.345Z,51.212170
2023-01-11T04:58:17.212Z,51.212128
2023-01-11T04:59:17.212Z,51.212086
2023-01-11T05:00:17.223Z,51.211964
2023-01-11T05:01:17.275Z,51.212097
2023-01-11T05:02:17.205Z,51.212013
2023-01-11T05:03:17.296Z,51.212025
2023-01-11T05:04:17.237Z,51.212112
2023-01-11T05:05:17.191Z,51.212132
2023-01-11T05:06:17.169Z,51.212093
2023-01-11T05:07:17.226Z,51.212109
2023-01-11T05:08:17.173Z,51.212074
2023-01-11T05:09:17.159Z,51.212009
2023-01-11T05:10:17.149Z,51.212208
2023-01-11T05:11:17.124Z,51.212151
2023-01-11T05:12:17.133Z,51.212124
2023-01-11T05:13:17.148Z,51.212173
2023-01-11T05:14:17.125Z,51.212208
2023-01-11T05:15:17.134Z,51.212006
2023-01-11T05:16:17.144Z,51.212063
2023-01-11T05:17:17.158Z,51.212021
2023-01-11T05:18:17.112Z,51.212040
2023-01-11T05:19:17.610Z,51.212067
2023-01-11T05:20:17.117Z,51.212234
2023-01-11T05:21:17.079Z,51.212017
2023-01-11T05:22:17.072Z,51.212238
2023-01-11T05:23:17.078Z,51.212376
2023-01-11T05:24:18.102Z,51.212181
2023-01-11T05:25:17.061Z,51.212067
2023-01-11T05:26:17.069Z,51.212097
2023-01-11T05:27:17.071Z,51.212170
2023-01-11T05:28:17.071Z,51.212257
2023-01-11T05:29:17.057Z,51.212223
2023-01-11T05:30:17.040Z,51.212254
2023-01-11T05:31:17.107Z,51.212200
2023-01-11T05:32:17.038Z,51.212009
2023-01-11T05:33:17.079Z,51.212185
2023-01-11T05:34:17.046Z,51.212215
2023-01-11T05:35:17.038Z,51.212284
2023-01-11T05:36:17.197Z,51.212318
2023-01-11T05:37:16.997Z,51.212097
2023-01-11T05:38:17.027Z,51.212105
2023-01-11T05:39:16.995Z,51.212154
2023-01-11T05:40:17.000Z,51.211903
2023-01-11T05:41:17.005Z,51.211872
2023-01-11T05:42:16.978Z,51.212059
2023-01-11T05:43:16.949Z,51.211823
2023-01-11T05:44:16.978Z,51.212063
2023-01-11T05:45:16.957Z,51.212147
2023-01-11T05:46:17.013Z,51.212360
2023-01-11T05:47:16.953Z,51.212120
2023-01-11T05:48:16.922Z,51.211967
2023-01-11T05:49:16.987Z,51.212051
2023-01-11T05:50:16.987Z,51.212048
2023-01-11T05:51:16.931Z,51.211964
2023-01-11T05:52:16.907Z,51.212070
2023-01-11T05:53:16.912Z,51.212189
2023-01-11T05:54:16.940Z,51.212162
2023-01-11T05:55:16.918Z,51.212135
2023-01-11T05:56:16.886Z,51.212048
2023-01-11T05:57:16.903Z,51.212013
2023-01-11T05:58:16.862Z,51.212040
2023-01-11T05:59:16.915Z,51.212086
2023-01-11T06:00:16.932Z,51.212101
2023-01-11T06:01:16.886Z,51.212231
2023-01-11T06:02:16.938Z,51.212250
2023-01-11T06:03:16.935Z,51.212170
2023-01-11T06:04:16.852Z,51.212151
2023-01-11T06:05:16.840Z,51.212120
2023-01-11T06:06:16.820Z,51.212154
2023-01-11T06:07:16.832Z,51.212139
2023-01-11T06:08:16.812Z,51.212055
2023-01-11T06:09:16.837Z,51.212029
2023-01-11T06:10:16.827Z,51.212074
2023-01-11T06:11:16.878Z,51.212063
2023-01-11T06:12:16.806Z,51.211998
2023-01-11T06:13:16.828Z,51.212070
2023-01-11T06:14:16.803Z,51.212093
2023-01-11T06:15:16.775Z,51.212181
2023-01-11T06:16:16.826Z,51.212086
2023-01-11T06:17:16.805Z,51.211987
2023-01-11T06:18:16.744Z,51.212044
2023-01-11T06:19:16.797Z,51.211784
2023-01-11T06:20:16.748Z,51.211895
2023-01-11T06:21:16.763Z,51.211929
2023-01-11T06:22:16.728Z,51.211838
2023-01-11T06:23:17.752Z,51.211891
2023-01-11T06:24:16.715Z,51.211922
2023-01-11T06:25:16.713Z,51.211937
2023-01-11T06:26:16.752Z,51.211861
2023-01-11T06:27:16.699Z,51.211868
2023-01-11T06:28:16.713Z,51.212132
2023-01-11T06:29:16.721Z,51.212185
2023-01-11T06:30:16.702Z,51.212109
2023-01-11T06:31:17.871Z,51.212158
2023-01-11T06:32:17.671Z,51.212215
2023-01-11T06:33:16.692Z,51.212250
2023-01-11T06:34:16.680Z,51.212227
2023-01-11T06:35:16.652Z,51.212334
2023-01-11T06:36:16.674Z,51.212292
2023-01-11T06:37:16.658Z,51.212128
2023-01-11T06:38:16.681Z,51.212093
2023-01-11T06:39:16.701Z,51.212090
2023-01-11T06:40:16.634Z,51.212181
2023-01-11T06:41:16.630Z,51.212387
2023-01-11T06:42:16.646Z,51.212330
2023-01-11T06:43:16.619Z,51.212170
2023-01-11T06:44:16.627Z,51.212090
2023-01-11T06:45:16.607Z,51.212185
2023-01-11T06:46:16.660Z,51.212288
2023-01-11T06:47:16.595Z,51.212315
2023-01-11T06:48:16.578Z,51.212147
2023-01-11T06:49:16.601Z,51.212143
2023-01-11T06:50:16.565Z,51.212132
2023-01-11T06:51:16.551Z,51.212162
2023-01-11T06:52:16.567Z,51.212158
2023-01-11T06:53:16.565Z,51.212162
2023-01-11T06:54:16.531Z,51.212181
2023-01-11T06:55:16.583Z,51.212177
2023-01-11T06:56:16.532Z,51.212147
2023-01-11T06:57:16.523Z,51.212158
2023-01-11T06:58:16.529Z,51.212128
2023-01-11T06:59:16.543Z,51.212101
2023-01-11T07:00:16.520Z,51.212204
2023-01-11T07:01:16.632Z,51.212151
2023-01-11T07:02:16.488Z,51.212326
2023-01-11T07:03:16.486Z,51.212227
2023-01-11T07:04:16.491Z,51.212147
2023-01-11T07:05:18.876Z,51.212181
2023-01-11T07:06:17.488Z,51.212139
2023-01-11T07:07:16.484Z,51.212120
2023-01-11T07:08:16.499Z,51.212173
2023-01-11T07:09:16.465Z,51.211971
2023-01-11T07:10:16.456Z,51.212017
2023-01-11T07:11:16.505Z,51.212063
2023-01-11T07:12:16.445Z,51.212032
2023-01-11T07:13:16.521Z,51.212097
2023-01-11T07:14:16.442Z,51.212044
2023-01-11T07:15:16.439Z,51.212009
2023-01-11T07:16:16.491Z,51.212086
2023-01-11T07:17:16.423Z,51.212086
2023-01-11T07:18:17.019Z,51.212135
2023-01-11T07:19:16.428Z,51.212166
2023-01-11T07:20:16.407Z,51.212170
2023-01-11T07:21:16.419Z,51.212017
2023-01-11T07:22:16.416Z,51.211964
2023-01-11T07:23:16.426Z,51.212044
2023-01-11T07:24:16.388Z,51.212101
2023-01-11T07:25:16.375Z,51.212112
2023-01-11T07:26:16.479Z,51.212135
2023-01-11T07:27:16.363Z,51.212105
2023-01-11T07:28:16.368Z,51.211971
2023-01-11T07:29:16.407Z,51.212051
2023-01-11T07:30:16.370Z,51.212082
2023-01-11T07:31:17.430Z,51.212135
2023-01-11T07:32:16.350Z,51.212070
2023-01-11T07:33:16.349Z,51.212120
2023-01-11T07:34:16.329Z,51.212109
2023-01-11T07:35:16.361Z,51.212189
2023-01-11T07:36:16.372Z,51.212120
2023-01-11T07:37:28.283Z,51.212132
2023-01-11T07:38:17.333Z,51.212242
2023-01-11T07:39:16.315Z,51.212181
2023-01-11T07:40:16.300Z,51.212090
2023-01-11T07:41:16.343Z,51.212063
2023-01-11T07:42:16.287Z,51.212090
2023-01-11T07:43:16.279Z,51.212032
2023-01-11T07:44:16.308Z,51.212086
2023-01-11T07:45:16.326Z,51.212128
2023-01-11T07:46:16.347Z,51.212093
2023-01-11T07:47:16.350Z,51.212082
2023-01-11T07:48:16.264Z,51.212040
2023-01-11T07:49:16.262Z,51.212055
2023-01-11T07:50:16.243Z,51.212105
2023-01-11T07:51:16.280Z,51.212101
2023-01-11T07:52:16.252Z,51.212029
2023-01-11T07:53:16.222Z,51.212101
2023-01-11T07:54:16.243Z,51.212093
2023-01-11T07:55:16.216Z,51.212101
2023-01-11T07:56:16.196Z,51.212040
2023-01-11T07:57:17.258Z,51.212189
2023-01-11T07:58:16.197Z,51.212173
2023-01-11T07:59:16.186Z,51.212158
2023-01-11T08:00:16.196Z,51.212158
2023-01-11T08:01:16.199Z,51.212040
2023-01-11T08:02:16.250Z,51.212097
2023-01-11T08:03:16.432Z,51.212139
2023-01-11T08:04:16.194Z,51.212132
2023-01-11T08:05:16.181Z,51.212139
2023-01-11T08:06:16.181Z,51.212021
2023-01-11T08:07:16.148Z,51.212124
2023-01-11T08:08:16.145Z,51.212124
2023-01-11T08:09:16.126Z,51.212132
2023-01-11T08:10:16.130Z,51.212124
2023-01-11T08:11:16.114Z,51.212200
2023-01-11T08:12:16.109Z,51.212204
2023-01-11T08:13:16.133Z,51.212215
2023-01-11T08:14:16.159Z,51.212170
2023-01-11T08:15:16.123Z,51.212036
2023-01-11T08:16:16.157Z,51.212059
2023-01-11T08:17:16.098Z,51.212067
2023-01-11T08:18:16.098Z,51.212055
2023-01-11T08:19:16.074Z,51.212139
2023-01-11T08:20:16.091Z,51.212215
2023-01-11T08:21:16.069Z,51.212177
2023-01-11T08:22:16.068Z,51.212257
2023-01-11T08:23:16.076Z,51.212265
2023-01-11T08:24:16.060Z,51.212246
2023-01-11T08:25:16.035Z,51.212086
2023-01-11T08:26:16.038Z,51.211964
2023-01-11T08:27:16.019Z,51.212051
2023-01-11T08:28:16.023Z,51.212151
2023-01-11T08:29:16.014Z,51.211964
2023-01-11T08:30:16.028Z,51.212044
2023-01-11T08:31:16.061Z,51.211884
2023-01-11T08:32:16.014Z,51.211990
2023-01-11T08:33:16.002Z,51.211967
2023-01-11T08:34:16.023Z,51.212029
2023-01-11T08:35:15.985Z,51.212105
2023-01-11T08:36:15.974Z,51.212032
2023-01-11T08:37:17.002Z,51.212067
2023-01-11T08:38:15.974Z,51.212162
2023-01-11T08:39:15.960Z,51.212132
2023-01-11T08:40:15.979Z,51.212048
2023-01-11T08:41:15.960Z,51.211952
2023-01-11T08:42:15.961Z,51.212051
2023-01-11T08:43:15.955Z,51.211975
2023-01-11T08:44:22.360Z,51.211926
2023-01-11T08:45:16.919Z,51.211926
2023-01-11T08:46:16.018Z,51.211987
2023-01-11T08:47:15.952Z,51.211945
2023-01-11T08:48:15.927Z,51.211998
2023-01-11T08:49:15.939Z,51.212009
2023-01-11T08:50:15.918Z,51.211899
2023-01-11T08:51:15.915Z,51.211933
2023-01-11T08:52:15.911Z,51.211914
2023-01-11T08:53:15.895Z,51.212036
2023-01-11T08:54:15.906Z,51.212044
2023-01-11T08:55:15.896Z,51.212002
2023-01-11T08:56:15.861Z,51.212051
2023-01-11T08:57:15.858Z,51.212006
2023-01-11T08:58:15.876Z,51.212128
2023-01-11T08:59:15.858Z,51.212002
2023-01-11T09:00:15.846Z,51.212097
2023-01-11T09:01:15.895Z,51.212139
2023-01-11T09:02:15.847Z,51.211994
2023-01-11T09:03:15.827Z,51.212105
2023-01-11T09:04:24.705Z,51.212074
2023-01-11T09:05:18.457Z,51.212032
2023-01-11T09:06:16.819Z,51.212143
2023-01-11T09:07:15.804Z,51.212128
2023-01-11T09:08:15.830Z,51.212124
2023-01-11T09:09:15.880Z,51.212032
2023-01-11T09:10:15.843Z,51.212059
2023-01-11T09:11:16.785Z,51.212032
2023-01-11T09:12:15.805Z,51.212002
2023-01-11T09:13:15.780Z,51.211987
2023-01-11T09:14:15.764Z,51.211922
2023-01-11T09:15:15.781Z,51.212021
2023-01-11T09:16:15.772Z,51.212059
2023-01-11T09:17:15.744Z,51.211990
2023-01-11T09:18:15.748Z,51.211922
2023-01-11T09:19:15.748Z,51.211796
2023-01-11T09:20:15.761Z,51.211842
2023-01-11T09:21:15.743Z,51.212055
2023-01-11T09:22:15.744Z,51.212036
2023-01-11T09:23:15.734Z,51.211994
2023-01-11T09:24:15.715Z,51.211964
2023-01-11T09:25:15.727Z,51.211876
2023-01-11T09:26:15.808Z,51.211704
2023-01-11T09:27:15.718Z,51.211868
2023-01-11T09:28:15.691Z,51.211906
2023-01-11T09:29:15.741Z,51.211784
2023-01-11T09:30:15.703Z,51.211678
2023-01-11T09:31:15.705Z,51.211876
2023-01-11T09:32:15.668Z,51.211941
2023-01-11T09:33:15.664Z,51.211922
2023-01-11T09:34:15.666Z,51.211914
2023-01-11T09:35:15.674Z,51.211830
2023-01-11T09:36:15.663Z,51.211731
2023-01-11T09:37:15.638Z,51.211910
2023-01-11T09:38:15.636Z,51.211834
2023-01-11T09:39:15.639Z,51.211727
2023-01-11T09:40:15.656Z,51.211670
2023-01-11T09:41:15.636Z,51.211784
2023-01-11T09:42:15.649Z,51.212204
2023-01-11T09:43:15.609Z,51.212097
2023-01-11T09:44:15.626Z,51.212154
2023-01-11T09:45:15.627Z,51.212166
2023-01-11T09:46:15.677Z,51.212078
2023-01-11T09:47:15.619Z,51.212082
2023-01-11T09:48:15.596Z,51.212093
2023-01-11T09:49:15.597Z,51.212139
2023-01-11T09:50:15.575Z,51.212154
2023-01-11T09:51:15.614Z,51.212132
2023-01-11T09:52:15.603Z,51.212070
2023-01-11T09:53:15.541Z,51.212082
2023-01-11T09:54:15.542Z,51.211987
2023-01-11T09:55:15.541Z,51.211937
2023-01-11T09:56:15.537Z,51.212097
2023-01-11T09:57:15.564Z,51.212116
2023-01-11T09:58:16.571Z,51.212097
2023-01-11T09:59:15.511Z,51.212036
2023-01-11T10:00:15.552Z,51.212036
2023-01-11T10:01:15.635Z,51.212021
2023-01-11T10:02:18.014Z,51.211880
2023-01-11T10:03:15.494Z,51.212021
2023-01-11T10:04:15.502Z,51.212116
2023-01-11T10:05:15.511Z,51.212082
2023-01-11T10:06:15.474Z,51.212021
2023-01-11T10:07:15.465Z,51.211937
2023-01-11T10:18:25.683Z,51.212063
2023-01-11T10:18:31.449Z,51.212086
2023-01-11T10:18:33.752Z,51.212082
2023-01-11T10:18:37.347Z,51.212044
2023-01-11T10:18:42.707Z,51.212036
2023-01-11T10:19:36.494Z,51.212093
2023-01-11T10:20:17.498Z,51.212147
2023-01-11T10:21:15.396Z,51.212158
2023-01-11T10:22:15.386Z,51.212078
2023-01-11T10:23:15.380Z,51.211998
2023-01-11T10:24:15.388Z,51.211994
2023-01-11T10:25:15.349Z,51.212093
2023-01-11T10:26:15.344Z,51.212132
2023-01-11T10:27:15.408Z,51.212170
2023-01-11T10:28:15.404Z,51.212151
2023-01-11T10:29:16.016Z,51.211967
2023-01-11T10:30:15.328Z,51.212093
2023-01-11T10:31:15.373Z,51.212135
2023-01-11T10:32:15.381Z,51.212147
2023-01-11T10:33:15.306Z,51.212158
2023-01-11T10:34:15.325Z,51.212120
2023-01-11T10:35:15.331Z,51.212177
2023-01-11T10:36:15.299Z,51.212196
2023-01-11T10:37:15.312Z,51.211945
2023-01-11T10:38:15.267Z,51.212040
2023-01-11T10:39:15.254Z,51.211987
2023-01-11T10:40:15.319Z,51.212135
2023-01-11T10:41:15.249Z,51.212261
2023-01-11T10:42:15.246Z,51.211891
2023-01-11T10:43:15.264Z,51.212112
2023-01-11T10:44:15.225Z,51.212063
2023-01-11T10:45:16.272Z,51.212070
2023-01-11T10:46:15.217Z,51.212051
2023-01-11T10:47:15.208Z,51.212017
2023-01-11T10:48:15.205Z,51.212055
2023-01-11T10:49:15.202Z,51.212040
2023-01-11T10:50:15.210Z,51.212036
2023-01-11T10:51:15.206Z,51.211914
2023-01-11T10:52:15.239Z,51.212002
2023-01-11T10:53:15.215Z,51.211975
2023-01-11T10:54:15.180Z,51.211941
2023-01-11T10:55:15.183Z,51.212105
2023-01-11T10:56:15.194Z,51.211990
2023-01-11T10:57:15.156Z,51.211800
2023-01-11T10:58:15.163Z,51.212067
2023-01-11T10:59:15.149Z,51.212189
2023-01-11T11:00:15.131Z,51.212143
2023-01-11T11:01:15.177Z,51.212101
2023-01-11T11:02:15.286Z,51.212132
2023-01-11T11:03:15.128Z,51.212036
2023-01-11T11:04:15.141Z,51.212219
2023-01-11T11:05:15.109Z,51.212044
2023-01-11T11:06:15.103Z,51.211987
2023-01-11T11:07:15.153Z,51.212151
2023-01-11T11:08:15.093Z,51.212212
2023-01-11T11:09:15.092Z,51.212109
2023-01-11T11:10:15.076Z,51.211796
2023-01-11T11:11:15.070Z,51.211884
2023-01-11T11:12:15.075Z,51.212055
2023-01-11T11:13:15.070Z,51.211655
2023-01-11T11:14:15.054Z,51.211796
2023-01-11T11:15:15.087Z,51.212128
2023-01-11T11:16:15.147Z,51.212082
2023-01-11T11:17:15.065Z,51.212006
2023-01-11T11:18:15.044Z,51.212189
2023-01-11T11:19:15.033Z,51.211929
2023-01-11T11:20:15.002Z,51.211742
2023-01-11T11:21:15.004Z,51.212036
2023-01-11T11:22:15.043Z,51.211845
2023-01-11T11:23:15.047Z,51.212101
2023-01-11T11:24:14.976Z,51.212029
2023-01-11T11:25:14.991Z,51.211952
2023-01-11T11:26:14.977Z,51.212132
2023-01-11T11:27:15.023Z,51.211975
2023-01-11T11:28:14.946Z,51.211849
2023-01-11T11:29:14.956Z,51.211956
2023-01-11T11:30:14.945Z,51.212029